Terminal Aerodrome Forecast
Issued by NWS Atlanta, GA

Home | Current Version | Previous Version | Text Only | Print | Product List | Glossary On
Versions: 1 2 3 4 5 6 7 8 9 10 11 12 13 14 15 16 17 18 19 20 21 22 23 24 25 26 27 28 29 30 31 32 33 34 35
000
FTUS42 KFFC 220545
TAFATL
TAF
KATL 220545Z 2206/2312 10006KT P6SM FEW050 SCT150
     FM220900 10004KT P6SM SCT030 BKN250
     FM221000 10005KT P6SM SCT015 BKN025
     FM221400 10008KT P6SM SCT025 BKN040
     FM221600 11010G20KT P6SM BKN040
     FM230200 13010KT P6SM VCSH BKN025
     FM230800 11010KT 4SM -SHRA BR OVC008=

USA.gov is the U.S. government's official web portal to all federal, state and local government web resources and services.